sensor_id;sensor_type;location;lat;lon;timestamp;pressure;altitude;pressure_sealevel;temperature;humidity
11339;BME280;5724;42.684;23.252;2022-10-22T00:01:29;95189.47;;;6.74;92.59
11339;BME280;5724;42.684;23.252;2022-10-22T00:03:55;95188.81;;;6.68;93.35
11339;BME280;5724;42.684;23.252;2022-10-22T00:06:20;95192.03;;;6.70;93.60
11339;BME280;5724;42.684;23.252;2022-10-22T00:08:46;95194.41;;;6.72;93.29
11339;BME280;5724;42.684;23.252;2022-10-22T00:11:14;95186.28;;;6.72;93.37
11339;BME280;5724;42.684;23.252;2022-10-22T00:13:40;95197.28;;;6.75;93.30
11339;BME280;5724;42.684;23.252;2022-10-22T00:16:05;95196.44;;;6.57;94.75
11339;BME280;5724;42.684;23.252;2022-10-22T00:18:31;95197.84;;;6.55;94.53
11339;BME280;5724;42.684;23.252;2022-10-22T00:20:57;95193.22;;;6.55;95.17
11339;BME280;5724;42.684;23.252;2022-10-22T00:23:22;95193.41;;;6.59;94.58
11339;BME280;5724;42.684;23.252;2022-10-22T00:25:48;95182.56;;;6.59;94.26
11339;BME280;5724;42.684;23.252;2022-10-22T00:28:13;95174.03;;;6.52;93.36
11339;BME280;5724;42.684;23.252;2022-10-22T00:30:39;95175.00;;;6.47;93.42
11339;BME280;5724;42.684;23.252;2022-10-22T00:33:05;95172.00;;;6.26;93.26
11339;BME280;5724;42.684;23.252;2022-10-22T00:35:31;95177.78;;;6.34;94.05
11339;BME280;5724;42.684;23.252;2022-10-22T00:37:56;95174.69;;;6.26;94.47
11339;BME280;5724;42.684;23.252;2022-10-22T00:40:22;95169.91;;;6.23;94.62
11339;BME280;5724;42.684;23.252;2022-10-22T00:42:47;95168.63;;;6.21;94.01
11339;BME280;5724;42.684;23.252;2022-10-22T00:45:16;95175.00;;;6.25;94.11
11339;BME280;5724;42.684;23.252;2022-10-22T00:50:15;95175.50;;;6.27;94.24
11339;BME280;5724;42.684;23.252;2022-10-22T00:52:41;95183.53;;;6.32;94.35
11339;BME280;5724;42.684;23.252;2022-10-22T00:55:07;95187.31;;;6.22;93.84
11339;BME280;5724;42.684;23.252;2022-10-22T00:57:33;95168.63;;;6.21;93.98
11339;BME280;5724;42.684;23.252;2022-10-22T00:59:59;95168.94;;;6.19;94.49
11339;BME280;5724;42.684;23.252;2022-10-22T01:02:25;95171.03;;;6.22;94.07
11339;BME280;5724;42.684;23.252;2022-10-22T01:04:51;95158.88;;;6.20;94.54
11339;BME280;5724;42.684;23.252;2022-10-22T01:07:18;95151.81;;;6.10;94.76
11339;BME280;5724;42.684;23.252;2022-10-22T01:17:58;95129.56;;;5.99;95.56
11339;BME280;5724;42.684;23.252;2022-10-22T01:23:20;95130.41;;;6.09;95.89
11339;BME280;5724;42.684;23.252;2022-10-22T01:29:01;95130.22;;;6.05;96.02
11339;BME280;5724;42.684;23.252;2022-10-22T01:31:31;95125.59;;;6.06;95.10
11339;BME280;5724;42.684;23.252;2022-10-22T01:33:59;95127.03;;;6.03;96.05
11339;BME280;5724;42.684;23.252;2022-10-22T01:36:28;95120.38;;;6.09;94.84
11339;BME280;5724;42.684;23.252;2022-10-22T01:38:55;95120.16;;;6.06;95.37
11339;BME280;5724;42.684;23.252;2022-10-22T01:41:23;95110.75;;;6.03;95.87
11339;BME280;5724;42.684;23.252;2022-10-22T01:43:48;95104.34;;;5.99;95.79
11339;BME280;5724;42.684;23.252;2022-10-22T01:46:15;95105.00;;;6.05;95.67
11339;BME280;5724;42.684;23.252;2022-10-22T01:49:04;95107.28;;;6.11;95.35
11339;BME280;5724;42.684;23.252;2022-10-22T01:54:32;95121.00;;;6.15;95.36
11339;BME280;5724;42.684;23.252;2022-10-22T01:57:37;95117.38;;;6.19;95.68
11339;BME280;5724;42.684;23.252;2022-10-22T02:00:05;95116.13;;;6.25;95.71
11339;BME280;5724;42.684;23.252;2022-10-22T02:05:20;95118.38;;;6.32;95.24
11339;BME280;5724;42.684;23.252;2022-10-22T02:07:53;95120.16;;;6.37;95.14
11339;BME280;5724;42.684;23.252;2022-10-22T02:10:21;95120.78;;;6.34;95.78
11339;BME280;5724;42.684;23.252;2022-10-22T02:12:49;95116.97;;;6.35;95.60
11339;BME280;5724;42.684;23.252;2022-10-22T02:15:17;95113.91;;;6.27;95.60
11339;BME280;5724;42.684;23.252;2022-10-22T02:17:45;95114.41;;;6.29;94.41
11339;BME280;5724;42.684;23.252;2022-10-22T02:20:17;95106.56;;;6.28;94.28
11339;BME280;5724;42.684;23.252;2022-10-22T02:22:43;95099.84;;;6.25;93.70
11339;BME280;5724;42.684;23.252;2022-10-22T02:25:10;95108.16;;;5.98;94.45
11339;BME280;5724;42.684;23.252;2022-10-22T02:27:39;95112.72;;;5.89;94.40
11339;BME280;5724;42.684;23.252;2022-10-22T02:30:14;95114.84;;;5.92;94.64
11339;BME280;5724;42.684;23.252;2022-10-22T02:35:29;95120.28;;;5.78;95.17
11339;BME280;5724;42.684;23.252;2022-10-22T02:37:57;95073.97;;;5.43;95.97
11339;BME280;5724;42.684;23.252;2022-10-22T02:40:24;95130.03;;;5.57;96.30
11339;BME280;5724;42.684;23.252;2022-10-22T02:42:50;95124.81;;;5.60;96.84
11339;BME280;5724;42.684;23.252;2022-10-22T02:45:17;95133.69;;;5.52;96.58
11339;BME280;5724;42.684;23.252;2022-10-22T02:47:43;95127.00;;;5.58;96.35
11339;BME280;5724;42.684;23.252;2022-10-22T02:50:09;95134.66;;;5.56;96.54
11339;BME280;5724;42.684;23.252;2022-10-22T02:52:35;95125.69;;;5.69;96.53
11339;BME280;5724;42.684;23.252;2022-10-22T02:55:00;95132.88;;;5.74;95.69
11339;BME280;5724;42.684;23.252;2022-10-22T02:57:26;95123.25;;;5.68;96.53
11339;BME280;5724;42.684;23.252;2022-10-22T02:59:51;95104.59;;;5.66;97.66
11339;BME280;5724;42.684;23.252;2022-10-22T03:02:17;95124.41;;;5.75;96.83
11339;BME280;5724;42.684;23.252;2022-10-22T03:04:42;95116.72;;;5.69;97.11
11339;BME280;5724;42.684;23.252;2022-10-22T03:07:07;95118.34;;;5.70;98.26
11339;BME280;5724;42.684;23.252;2022-10-22T03:09:33;95116.59;;;5.74;97.93
11339;BME280;5724;42.684;23.252;2022-10-22T03:11:58;95116.13;;;5.72;97.74
11339;BME280;5724;42.684;23.252;2022-10-22T03:14:24;95126.81;;;5.77;98.20
11339;BME280;5724;42.684;23.252;2022-10-22T03:16:49;95123.19;;;5.82;96.96
11339;BME280;5724;42.684;23.252;2022-10-22T03:19:15;95118.03;;;5.71;96.35
11339;BME280;5724;42.684;23.252;2022-10-22T03:21:53;95113.44;;;5.58;95.83
11339;BME280;5724;42.684;23.252;2022-10-22T03:24:27;95118.38;;;5.56;95.81
11339;BME280;5724;42.684;23.252;2022-10-22T03:26:54;95113.97;;;5.60;95.73
11339;BME280;5724;42.684;23.252;2022-10-22T03:29:21;95112.16;;;5.33;97.65
11339;BME280;5724;42.684;23.252;2022-10-22T03:31:47;95108.84;;;5.36;96.99
11339;BME280;5724;42.684;23.252;2022-10-22T03:34:14;95098.78;;;5.37;97.95
11339;BME280;5724;42.684;23.252;2022-10-22T03:36:40;95111.63;;;5.45;98.34
11339;BME280;5724;42.684;23.252;2022-10-22T03:39:06;95097.97;;;5.50;98.54
11339;BME280;5724;42.684;23.252;2022-10-22T03:41:32;95098.75;;;5.51;98.75
11339;BME280;5724;42.684;23.252;2022-10-22T03:43:59;95087.66;;;5.61;98.04
11339;BME280;5724;42.684;23.252;2022-10-22T03:46:25;95099.16;;;5.66;97.98
11339;BME280;5724;42.684;23.252;2022-10-22T03:48:51;95117.28;;;5.57;97.04
11339;BME280;5724;42.684;23.252;2022-10-22T03:51:16;95120.22;;;5.47;97.69
11339;BME280;5724;42.684;23.252;2022-10-22T03:53:42;95107.00;;;5.45;98.25
11339;BME280;5724;42.684;23.252;2022-10-22T03:56:08;95110.00;;;5.44;98.20
11339;BME280;5724;42.684;23.252;2022-10-22T03:58:35;95120.97;;;5.39;97.53
11339;BME280;5724;42.684;23.252;2022-10-22T04:01:08;95120.47;;;5.37;97.42
11339;BME280;5724;42.684;23.252;2022-10-22T04:03:35;95100.22;;;5.34;97.92
11339;BME280;5724;42.684;23.252;2022-10-22T04:06:05;95101.09;;;5.43;97.71
11339;BME280;5724;42.684;23.252;2022-10-22T04:08:31;95108.41;;;5.43;97.55
11339;BME280;5724;42.684;23.252;2022-10-22T04:10:56;95104.44;;;5.27;98.14
11339;BME280;5724;42.684;23.252;2022-10-22T04:13:22;95110.88;;;5.31;97.99
11339;BME280;5724;42.684;23.252;2022-10-22T04:15:47;95103.91;;;5.38;98.73
11339;BME280;5724;42.684;23.252;2022-10-22T04:18:13;95089.75;;;5.41;99.37
11339;BME280;5724;42.684;23.252;2022-10-22T04:20:40;95077.13;;;5.37;99.13
11339;BME280;5724;42.684;23.252;2022-10-22T04:23:05;95091.22;;;5.47;99.06
11339;BME280;5724;42.684;23.252;2022-10-22T04:25:31;95088.09;;;5.54;99.22
11339;BME280;5724;42.684;23.252;2022-10-22T04:27:56;95093.19;;;5.56;99.22
11339;BME280;5724;42.684;23.252;2022-10-22T04:30:22;95093.44;;;5.68;98.74
11339;BME280;5724;42.684;23.252;2022-10-22T04:32:47;95082.84;;;5.58;98.93
11339;BME280;5724;42.684;23.252;2022-10-22T04:35:13;95104.09;;;5.64;99.35
11339;BME280;5724;42.684;23.252;2022-10-22T04:37:38;95097.25;;;5.67;99.39
11339;BME280;5724;42.684;23.252;2022-10-22T04:40:04;95098.41;;;5.74;98.98
11339;BME280;5724;42.684;23.252;2022-10-22T04:42:30;95093.75;;;5.66;99.52
11339;BME280;5724;42.684;23.252;2022-10-22T04:44:55;95100.66;;;5.72;99.45
11339;BME280;5724;42.684;23.252;2022-10-22T04:47:21;95099.28;;;5.84;99.22
11339;BME280;5724;42.684;23.252;2022-10-22T04:49:46;95095.44;;;5.85;98.41
11339;BME280;5724;42.684;23.252;2022-10-22T04:52:12;95097.06;;;5.86;98.40
11339;BME280;5724;42.684;23.252;2022-10-22T04:54:37;95109.00;;;5.85;98.25
11339;BME280;5724;42.684;23.252;2022-10-22T04:57:03;95115.94;;;5.91;98.97
11339;BME280;5724;42.684;23.252;2022-10-22T04:59:28;95095.94;;;5.87;98.37
11339;BME280;5724;42.684;23.252;2022-10-22T05:01:54;95113.16;;;6.05;98.20
11339;BME280;5724;42.684;23.252;2022-10-22T05:04:19;95114.78;;;6.14;97.36
11339;BME280;5724;42.684;23.252;2022-10-22T05:06:45;95120.41;;;6.18;97.58
11339;BME280;5724;42.684;23.252;2022-10-22T05:09:13;95142.28;;;5.90;96.49
11339;BME280;5724;42.684;23.252;2022-10-22T05:11:40;95138.34;;;5.83;97.22
11339;BME280;5724;42.684;23.252;2022-10-22T05:14:07;95141.69;;;5.80;97.66
11339;BME280;5724;42.684;23.252;2022-10-22T05:16:34;95137.13;;;5.44;99.49
11339;BME280;5724;42.684;23.252;2022-10-22T05:19:00;95134.91;;;5.46;100.00
11339;BME280;5724;42.684;23.252;2022-10-22T05:21:27;95137.69;;;5.55;99.46
11339;BME280;5724;42.684;23.252;2022-10-22T05:23:53;95129.44;;;5.60;100.00
11339;BME280;5724;42.684;23.252;2022-10-22T05:26:20;95134.41;;;5.66;98.90
11339;BME280;5724;42.684;23.252;2022-10-22T05:28:47;95128.28;;;5.38;100.00
11339;BME280;5724;42.684;23.252;2022-10-22T05:31:15;95144.50;;;5.52;100.00
11339;BME280;5724;42.684;23.252;2022-10-22T05:33:41;95142.75;;;5.70;99.43
11339;BME280;5724;42.684;23.252;2022-10-22T05:36:08;95141.63;;;5.71;99.77
11339;BME280;5724;42.684;23.252;2022-10-22T05:38:35;95139.41;;;5.73;100.00
11339;BME280;5724;42.684;23.252;2022-10-22T05:43:28;95140.34;;;5.91;99.33
11339;BME280;5724;42.684;23.252;2022-10-22T05:45:54;95137.19;;;5.97;98.95
11339;BME280;5724;42.684;23.252;2022-10-22T05:48:20;95139.09;;;5.97;98.64
11339;BME280;5724;42.684;23.252;2022-10-22T05:50:46;95150.06;;;6.14;98.32
11339;BME280;5724;42.684;23.252;2022-10-22T05:53:16;95126.63;;;6.18;97.72
11339;BME280;5724;42.684;23.252;2022-10-22T05:55:42;95130.84;;;6.33;97.15
11339;BME280;5724;42.684;23.252;2022-10-22T05:58:08;95147.44;;;6.31;96.44
11339;BME280;5724;42.684;23.252;2022-10-22T06:00:34;95135.84;;;6.40;96.27
11339;BME280;5724;42.684;23.252;2022-10-22T06:03:00;95143.06;;;6.53;96.38
11339;BME280;5724;42.684;23.252;2022-10-22T06:05:25;95148.38;;;6.58;96.30
11339;BME280;5724;42.684;23.252;2022-10-22T06:07:51;95155.41;;;6.59;96.07
11339;BME280;5724;42.684;23.252;2022-10-22T06:10:18;95145.50;;;6.63;96.85
11339;BME280;5724;42.684;23.252;2022-10-22T06:12:46;95147.63;;;6.83;96.81
11339;BME280;5724;42.684;23.252;2022-10-22T06:15:15;95148.66;;;6.96;95.82
11339;BME280;5724;42.684;23.252;2022-10-22T06:17:42;95146.13;;;7.08;95.55
11339;BME280;5724;42.684;23.252;2022-10-22T06:20:08;95149.81;;;7.30;95.16
11339;BME280;5724;42.684;23.252;2022-10-22T06:22:34;95148.06;;;7.42;93.79
11339;BME280;5724;42.684;23.252;2022-10-22T06:24:59;95145.69;;;7.50;92.69
11339;BME280;5724;42.684;23.252;2022-10-22T06:27:24;95136.88;;;7.70;92.26
11339;BME280;5724;42.684;23.252;2022-10-22T06:29:50;95148.56;;;7.96;90.58
11339;BME280;5724;42.684;23.252;2022-10-22T06:32:15;95153.66;;;7.89;89.60
11339;BME280;5724;42.684;23.252;2022-10-22T06:34:41;95159.63;;;7.91;89.64
11339;BME280;5724;42.684;23.252;2022-10-22T06:37:06;95160.06;;;8.02;89.06
11339;BME280;5724;42.684;23.252;2022-10-22T06:39:33;95156.22;;;8.12;88.59
11339;BME280;5724;42.684;23.252;2022-10-22T06:41:58;95148.09;;;7.68;89.42
11339;BME280;5724;42.684;23.252;2022-10-22T06:44:24;95155.91;;;7.87;89.92
11339;BME280;5724;42.684;23.252;2022-10-22T06:46:50;95150.59;;;8.08;89.28
11339;BME280;5724;42.684;23.252;2022-10-22T06:49:19;95151.22;;;8.40;88.38
11339;BME280;5724;42.684;23.252;2022-10-22T06:51:47;95157.38;;;8.66;87.01
11339;BME280;5724;42.684;23.252;2022-10-22T06:54:13;95166.31;;;8.75;86.57
11339;BME280;5724;42.684;23.252;2022-10-22T06:56:38;95161.63;;;8.84;85.98
11339;BME280;5724;42.684;23.252;2022-10-22T06:59:04;95163.03;;;8.91;85.49
11339;BME280;5724;42.684;23.252;2022-10-22T07:01:31;95164.78;;;8.95;84.95
11339;BME280;5724;42.684;23.252;2022-10-22T07:03:58;95168.34;;;9.16;84.08
11339;BME280;5724;42.684;23.252;2022-10-22T07:06:25;95164.34;;;9.43;82.67
11339;BME280;5724;42.684;23.252;2022-10-22T07:08:51;95164.66;;;9.42;82.77
11339;BME280;5724;42.684;23.252;2022-10-22T07:11:20;95155.97;;;9.69;82.03
11339;BME280;5724;42.684;23.252;2022-10-22T07:13:47;95161.22;;;9.95;81.25
11339;BME280;5724;42.684;23.252;2022-10-22T07:16:13;95160.13;;;10.09;80.29
11339;BME280;5724;42.684;23.252;2022-10-22T07:18:39;95163.94;;;10.16;80.63
11339;BME280;5724;42.684;23.252;2022-10-22T07:21:06;95161.19;;;10.37;79.72
11339;BME280;5724;42.684;23.252;2022-10-22T07:23:32;95159.75;;;10.52;78.30
11339;BME280;5724;42.684;23.252;2022-10-22T07:25:57;95158.47;;;10.49;77.31
11339;BME280;5724;42.684;23.252;2022-10-22T07:28:23;95141.31;;;9.95;78.38
11339;BME280;5724;42.684;23.252;2022-10-22T07:30:49;95144.56;;;10.09;78.49
11339;BME280;5724;42.684;23.252;2022-10-22T07:33:15;95145.66;;;9.96;78.87
11339;BME280;5724;42.684;23.252;2022-10-22T07:35:41;95153.63;;;10.01;79.90
11339;BME280;5724;42.684;23.252;2022-10-22T07:38:07;95147.63;;;10.41;78.39
11339;BME280;5724;42.684;23.252;2022-10-22T07:40:33;95148.16;;;10.67;77.93
11339;BME280;5724;42.684;23.252;2022-10-22T07:42:59;95150.97;;;10.71;77.02
11339;BME280;5724;42.684;23.252;2022-10-22T07:45:25;95143.03;;;10.78;77.19
11339;BME280;5724;42.684;23.252;2022-10-22T07:47:50;95142.81;;;10.95;76.51
11339;BME280;5724;42.684;23.252;2022-10-22T07:50:16;95133.72;;;11.03;75.86
11339;BME280;5724;42.684;23.252;2022-10-22T07:52:43;95136.78;;;11.26;75.53
11339;BME280;5724;42.684;23.252;2022-10-22T07:55:08;95126.41;;;11.20;74.27
11339;BME280;5724;42.684;23.252;2022-10-22T07:57:34;95134.13;;;10.69;75.88
11339;BME280;5724;42.684;23.252;2022-10-22T08:00:04;95135.31;;;10.92;75.37
11339;BME280;5724;42.684;23.252;2022-10-22T08:02:29;95136.53;;;11.19;74.54
11339;BME280;5724;42.684;23.252;2022-10-22T08:04:55;95133.56;;;11.36;74.69
11339;BME280;5724;42.684;23.252;2022-10-22T08:07:22;95115.47;;;11.32;73.89
11339;BME280;5724;42.684;23.252;2022-10-22T08:09:47;95123.81;;;11.63;73.60
11339;BME280;5724;42.684;23.252;2022-10-22T08:12:13;95126.63;;;11.79;73.12
11339;BME280;5724;42.684;23.252;2022-10-22T08:14:38;95128.34;;;11.84;72.45
11339;BME280;5724;42.684;23.252;2022-10-22T08:17:04;95120.69;;;11.89;72.13
11339;BME280;5724;42.684;23.252;2022-10-22T08:19:29;95119.06;;;12.00;71.47
11339;BME280;5724;42.684;23.252;2022-10-22T08:21:57;95119.91;;;12.17;71.31
11339;BME280;5724;42.684;23.252;2022-10-22T08:24:22;95110.47;;;12.30;70.45
11339;BME280;5724;42.684;23.252;2022-10-22T08:26:48;95113.34;;;12.49;70.03
11339;BME280;5724;42.684;23.252;2022-10-22T08:29:13;95116.38;;;12.32;69.98
11339;BME280;5724;42.684;23.252;2022-10-22T08:31:39;95115.31;;;12.65;69.30
11339;BME280;5724;42.684;23.252;2022-10-22T08:34:04;95104.50;;;12.87;68.07
11339;BME280;5724;42.684;23.252;2022-10-22T08:36:30;95107.50;;;12.82;67.31
11339;BME280;5724;42.684;23.252;2022-10-22T08:38:56;95111.84;;;12.83;68.07
11339;BME280;5724;42.684;23.252;2022-10-22T08:41:22;95106.88;;;13.05;67.44
11339;BME280;5724;42.684;23.252;2022-10-22T08:44:04;95116.00;;;13.25;66.91
11339;BME280;5724;42.684;23.252;2022-10-22T08:49:23;95116.88;;;13.13;67.41
11339;BME280;5724;42.684;23.252;2022-10-22T08:51:49;95105.63;;;13.18;65.76
11339;BME280;5724;42.684;23.252;2022-10-22T08:54:27;95114.41;;;12.92;66.02
11339;BME280;5724;42.684;23.252;2022-10-22T09:00:04;95116.97;;;13.16;66.48
11339;BME280;5724;42.684;23.252;2022-10-22T09:08:22;95097.16;;;13.78;65.11
11339;BME280;5724;42.684;23.252;2022-10-22T09:10:52;95100.06;;;13.85;64.94
11339;BME280;5724;42.684;23.252;2022-10-22T09:13:20;95095.41;;;13.89;64.67
11339;BME280;5724;42.684;23.252;2022-10-22T09:15:54;95096.59;;;14.07;63.86
11339;BME280;5724;42.684;23.252;2022-10-22T09:18:38;95103.81;;;13.96;62.98
11339;BME280;5724;42.684;23.252;2022-10-22T09:21:15;95094.03;;;14.18;62.41
11339;BME280;5724;42.684;23.252;2022-10-22T09:24:10;95090.63;;;14.24;62.60
11339;BME280;5724;42.684;23.252;2022-10-22T09:26:38;95082.03;;;14.07;61.50
11339;BME280;5724;42.684;23.252;2022-10-22T09:29:05;95083.13;;;14.21;62.02
11339;BME280;5724;42.684;23.252;2022-10-22T09:31:32;95088.88;;;14.36;61.75
11339;BME280;5724;42.684;23.252;2022-10-22T09:33:59;95084.31;;;14.63;61.56
11339;BME280;5724;42.684;23.252;2022-10-22T09:36:30;95082.91;;;14.49;59.93
11339;BME280;5724;42.684;23.252;2022-10-22T09:38:56;95080.06;;;14.26;60.68
11339;BME280;5724;42.684;23.252;2022-10-22T09:41:25;95066.22;;;14.42;60.80
11339;BME280;5724;42.684;23.252;2022-10-22T09:43:51;95062.06;;;14.71;61.28
11339;BME280;5724;42.684;23.252;2022-10-22T09:46:22;95064.31;;;14.88;60.89
11339;BME280;5724;42.684;23.252;2022-10-22T09:51:22;95053.94;;;15.05;60.22
11339;BME280;5724;42.684;23.252;2022-10-22T09:54:00;95065.66;;;14.98;59.51
11339;BME280;5724;42.684;23.252;2022-10-22T09:56:38;95056.59;;;14.98;59.63
11339;BME280;5724;42.684;23.252;2022-10-22T09:59:13;95051.81;;;15.21;61.06
11339;BME280;5724;42.684;23.252;2022-10-22T10:01:39;95034.13;;;15.49;58.13
11339;BME280;5724;42.684;23.252;2022-10-22T10:04:11;95036.78;;;15.68;57.53
11339;BME280;5724;42.684;23.252;2022-10-22T10:06:39;95035.16;;;15.97;57.99
11339;BME280;5724;42.684;23.252;2022-10-22T10:09:19;95030.84;;;15.99;56.69
11339;BME280;5724;42.684;23.252;2022-10-22T10:14:59;95036.03;;;16.42;55.80
11339;BME280;5724;42.684;23.252;2022-10-22T10:21:14;95032.16;;;16.50;54.96
11339;BME280;5724;42.684;23.252;2022-10-22T10:23:27;95034.78;;;16.73;54.25
11339;BME280;5724;42.684;23.252;2022-10-22T10:26:03;95026.78;;;16.64;54.60
11339;BME280;5724;42.684;23.252;2022-10-22T10:28:46;95025.59;;;17.09;52.76
11339;BME280;5724;42.684;23.252;2022-10-22T10:34:21;95024.50;;;17.21;52.33
11339;BME280;5724;42.684;23.252;2022-10-22T10:37:17;95016.28;;;17.32;51.82
11339;BME280;5724;42.684;23.252;2022-10-22T10:39:55;95009.03;;;17.13;53.12
11339;BME280;5724;42.684;23.252;2022-10-22T10:45:19;94983.06;;;17.21;51.52
11339;BME280;5724;42.684;23.252;2022-10-22T10:48:49;94995.91;;;17.65;50.96
11339;BME280;5724;42.684;23.252;2022-10-22T11:01:39;94968.00;;;17.95;51.26
11339;BME280;5724;42.684;23.252;2022-10-22T11:06:38;94947.91;;;18.09;50.94
11339;BME280;5724;42.684;23.252;2022-10-22T11:09:23;94948.69;;;18.02;52.54
11339;BME280;5724;42.684;23.252;2022-10-22T11:14:32;94936.09;;;18.47;50.66
11339;BME280;5724;42.684;23.252;2022-10-22T11:17:37;94932.56;;;18.54;49.43
11339;BME280;5724;42.684;23.252;2022-10-22T11:20:27;94922.63;;;18.21;49.59
11339;BME280;5724;42.684;23.252;2022-10-22T11:22:59;94923.88;;;18.63;48.38
11339;BME280;5724;42.684;23.252;2022-10-22T11:25:31;94912.81;;;18.73;48.17
11339;BME280;5724;42.684;23.252;2022-10-22T11:28:02;94915.56;;;18.45;49.61
11339;BME280;5724;42.684;23.252;2022-10-22T11:30:33;94904.09;;;18.53;48.70
11339;BME280;5724;42.684;23.252;2022-10-22T11:33:03;94911.59;;;18.46;49.62
11339;BME280;5724;42.684;23.252;2022-10-22T11:35:33;94904.47;;;18.55;48.16
11339;BME280;5724;42.684;23.252;2022-10-22T11:38:00;94894.59;;;18.40;49.01
11339;BME280;5724;42.684;23.252;2022-10-22T11:40:37;94895.41;;;18.55;49.37
11339;BME280;5724;42.684;23.252;2022-10-22T11:43:33;94893.41;;;18.70;49.50
11339;BME280;5724;42.684;23.252;2022-10-22T11:46:27;94891.44;;;18.63;50.33
11339;BME280;5724;42.684;23.252;2022-10-22T11:49:41;94890.25;;;18.78;48.94
11339;BME280;5724;42.684;23.252;2022-10-22T11:52:25;94885.09;;;18.41;48.71
11339;BME280;5724;42.684;23.252;2022-10-22T11:54:54;94859.81;;;18.28;49.73
11339;BME280;5724;42.684;23.252;2022-10-22T11:57:39;94880.78;;;18.72;49.96
11339;BME280;5724;42.684;23.252;2022-10-22T12:00:31;94880.72;;;18.97;48.24
11339;BME280;5724;42.684;23.252;2022-10-22T12:03:36;94869.28;;;18.84;48.72
11339;BME280;5724;42.684;23.252;2022-10-22T12:16:24;94862.56;;;18.82;48.41
11339;BME280;5724;42.684;23.252;2022-10-22T12:18:56;94854.25;;;18.85;47.71
11339;BME280;5724;42.684;23.252;2022-10-22T12:21:25;94864.06;;;19.01;47.23
11339;BME280;5724;42.684;23.252;2022-10-22T12:23:50;94856.16;;;19.06;48.37
11339;BME280;5724;42.684;23.252;2022-10-22T12:26:28;94856.16;;;19.13;47.32
11339;BME280;5724;42.684;23.252;2022-10-22T12:28:58;94861.69;;;19.13;47.74
11339;BME280;5724;42.684;23.252;2022-10-22T12:31:25;94841.03;;;19.32;47.36
11339;BME280;5724;42.684;23.252;2022-10-22T12:33:58;94838.66;;;19.31;46.90
11339;BME280;5724;42.684;23.252;2022-10-22T12:36:28;94833.88;;;19.38;46.35
11339;BME280;5724;42.684;23.252;2022-10-22T12:38:58;94841.81;;;19.29;45.92
11339;BME280;5724;42.684;23.252;2022-10-22T12:41:35;94844.25;;;19.16;46.39
11339;BME280;5724;42.684;23.252;2022-10-22T12:44:02;94811.41;;;19.15;46.02
11339;BME280;5724;42.684;23.252;2022-10-22T12:46:30;94839.41;;;19.38;46.55
11339;BME280;5724;42.684;23.252;2022-10-22T12:49:01;94847.25;;;19.58;46.11
11339;BME280;5724;42.684;23.252;2022-10-22T12:51:28;94840.09;;;19.64;46.62
11339;BME280;5724;42.684;23.252;2022-10-22T12:53:57;94836.50;;;19.70;46.37
11339;BME280;5724;42.684;23.252;2022-10-22T12:56:34;94832.84;;;19.84;45.82
11339;BME280;5724;42.684;23.252;2022-10-22T12:59:20;94831.59;;;19.92;45.25
11339;BME280;5724;42.684;23.252;2022-10-22T13:01:48;94828.00;;;19.95;44.91
11339;BME280;5724;42.684;23.252;2022-10-22T13:04:21;94827.53;;;20.08;44.92
11339;BME280;5724;42.684;23.252;2022-10-22T13:07:02;94812.97;;;19.93;45.29
11339;BME280;5724;42.684;23.252;2022-10-22T13:12:03;94817.81;;;19.78;44.73
11339;BME280;5724;42.684;23.252;2022-10-22T13:14:37;94821.88;;;19.70;45.07
11339;BME280;5724;42.684;23.252;2022-10-22T13:19:47;94804.13;;;19.46;46.04
11339;BME280;5724;42.684;23.252;2022-10-22T13:24:50;94807.59;;;19.68;46.38
11339;BME280;5724;42.684;23.252;2022-10-22T13:27:16;94798.94;;;19.59;46.15
11339;BME280;5724;42.684;23.252;2022-10-22T13:29:42;94800.22;;;19.36;46.14
11339;BME280;5724;42.684;23.252;2022-10-22T13:34:46;94802.69;;;19.20;46.47
11339;BME280;5724;42.684;23.252;2022-10-22T13:37:12;94803.91;;;19.15;46.25
11339;BME280;5724;42.684;23.252;2022-10-22T13:39:37;94808.66;;;19.15;46.69
11339;BME280;5724;42.684;23.252;2022-10-22T13:42:09;94803.94;;;19.12;46.82
11339;BME280;5724;42.684;23.252;2022-10-22T13:44:35;94796.78;;;19.14;46.89
11339;BME280;5724;42.684;23.252;2022-10-22T13:47:00;94800.72;;;19.17;46.71
11339;BME280;5724;42.684;23.252;2022-10-22T13:49:26;94799.97;;;19.13;47.54
11339;BME280;5724;42.684;23.252;2022-10-22T13:51:51;94803.13;;;19.11;47.29
11339;BME280;5724;42.684;23.252;2022-10-22T13:54:20;94807.91;;;19.00;47.40
11339;BME280;5724;42.684;23.252;2022-10-22T13:56:47;94796.09;;;18.93;48.01
11339;BME280;5724;42.684;23.252;2022-10-22T13:59:12;94794.53;;;18.84;48.00
11339;BME280;5724;42.684;23.252;2022-10-22T14:01:38;94811.16;;;18.84;48.96
11339;BME280;5724;42.684;23.252;2022-10-22T14:04:05;94808.78;;;18.83;48.56
11339;BME280;5724;42.684;23.252;2022-10-22T14:06:32;94798.09;;;18.81;48.95
11339;BME280;5724;42.684;23.252;2022-10-22T14:09:00;94789.41;;;18.76;49.33
11339;BME280;5724;42.684;23.252;2022-10-22T14:11:26;94794.91;;;18.94;48.26
11339;BME280;5724;42.684;23.252;2022-10-22T14:13:53;94800.00;;;18.99;48.32
11339;BME280;5724;42.684;23.252;2022-10-22T14:16:20;94792.91;;;19.01;48.61
11339;BME280;5724;42.684;23.252;2022-10-22T14:18:47;94797.19;;;19.13;48.12
11339;BME280;5724;42.684;23.252;2022-10-22T14:21:14;94795.94;;;19.25;47.99
11339;BME280;5724;42.684;23.252;2022-10-22T14:23:41;94790.78;;;19.30;47.72
11339;BME280;5724;42.684;23.252;2022-10-22T14:26:08;94784.84;;;19.25;47.44
11339;BME280;5724;42.684;23.252;2022-10-22T14:28:38;94788.81;;;19.31;47.45
11339;BME280;5724;42.684;23.252;2022-10-22T14:31:03;94782.47;;;19.30;47.30
11339;BME280;5724;42.684;23.252;2022-10-22T14:33:30;94786.84;;;19.24;47.90
11339;BME280;5724;42.684;23.252;2022-10-22T14:35:57;94782.47;;;19.27;47.18
11339;BME280;5724;42.684;23.252;2022-10-22T14:38:23;94781.69;;;19.26;47.10
11339;BME280;5724;42.684;23.252;2022-10-22T14:40:49;94781.72;;;19.19;47.52
11339;BME280;5724;42.684;23.252;2022-10-22T14:43:28;94780.91;;;19.19;48.53
11339;BME280;5724;42.684;23.252;2022-10-22T14:45:56;94784.50;;;19.15;48.33